sensor_id;sensor_type;location;lat;lon;timestamp;temperature;humidity
33564;DHT22;19894;48.452;11.494;2023-02-22T00:00:37;18.60;37.70
33564;DHT22;19894;48.452;11.494;2023-02-22T00:03:12;18.60;37.70
33564;DHT22;19894;48.452;11.494;2023-02-22T00:05:44;18.60;37.70
33564;DHT22;19894;48.452;11.494;2023-02-22T00:08:15;18.60;37.60
33564;DHT22;19894;48.452;11.494;2023-02-22T00:10:41;18.60;37.60
33564;DHT22;19894;48.452;11.494;2023-02-22T00:13:08;18.60;37.60
33564;DHT22;19894;48.452;11.494;2023-02-22T00:15:34;18.60;37.60
33564;DHT22;19894;48.452;11.494;2023-02-22T00:18:02;18.60;37.60
33564;DHT22;19894;48.452;11.494;2023-02-22T00:20:28;18.60;37.60
33564;DHT22;19894;48.452;11.494;2023-02-22T00:22:54;18.60;37.60
33564;DHT22;19894;48.452;11.494;2023-02-22T00:25:22;18.60;37.60
33564;DHT22;19894;48.452;11.494;2023-02-22T00:27:49;18.60;37.60
33564;DHT22;19894;48.452;11.494;2023-02-22T00:30:26;18.60;37.60
33564;DHT22;19894;48.452;11.494;2023-02-22T00:32:53;18.60;37.50
33564;DHT22;19894;48.452;11.494;2023-02-22T00:35:25;18.60;37.50
33564;DHT22;19894;48.452;11.494;2023-02-22T00:37:56;18.60;37.50
33564;DHT22;19894;48.452;11.494;2023-02-22T00:40:26;18.60;37.50
33564;DHT22;19894;48.452;11.494;2023-02-22T00:42:52;18.60;37.50
33564;DHT22;19894;48.452;11.494;2023-02-22T00:45:20;18.60;37.50
33564;DHT22;19894;48.452;11.494;2023-02-22T00:47:47;18.60;37.50
33564;DHT22;19894;48.452;11.494;2023-02-22T00:50:14;18.60;37.50
33564;DHT22;19894;48.452;11.494;2023-02-22T00:52:40;18.60;37.50
33564;DHT22;19894;48.452;11.494;2023-02-22T00:55:07;18.60;37.50
33564;DHT22;19894;48.452;11.494;2023-02-22T00:57:33;18.60;37.50
33564;DHT22;19894;48.452;11.494;2023-02-22T01:00:06;18.60;37.50
33564;DHT22;19894;48.452;11.494;2023-02-22T01:02:41;18.60;37.50
33564;DHT22;19894;48.452;11.494;2023-02-22T01:05:08;18.60;37.50
33564;DHT22;19894;48.452;11.494;2023-02-22T01:07:34;18.60;37.50
33564;DHT22;19894;48.452;11.494;2023-02-22T01:10:01;18.60;37.50
33564;DHT22;19894;48.452;11.494;2023-02-22T01:12:27;18.60;37.50
33564;DHT22;19894;48.452;11.494;2023-02-22T01:14:53;18.60;37.50
33564;DHT22;19894;48.452;11.494;2023-02-22T01:17:22;18.60;37.50
33564;DHT22;19894;48.452;11.494;2023-02-22T01:19:47;18.60;37.50
33564;DHT22;19894;48.452;11.494;2023-02-22T01:22:13;18.60;37.50
33564;DHT22;19894;48.452;11.494;2023-02-22T01:24:38;18.60;37.50
33564;DHT22;19894;48.452;11.494;2023-02-22T01:27:04;18.60;37.50
33564;DHT22;19894;48.452;11.494;2023-02-22T01:29:29;18.60;37.50
33564;DHT22;19894;48.452;11.494;2023-02-22T01:31:55;18.60;37.40
33564;DHT22;19894;48.452;11.494;2023-02-22T01:34:22;18.60;37.40
33564;DHT22;19894;48.452;11.494;2023-02-22T01:36:48;18.60;37.40
33564;DHT22;19894;48.452;11.494;2023-02-22T01:39:15;18.60;37.30
33564;DHT22;19894;48.452;11.494;2023-02-22T01:41:43;18.60;37.40
33564;DHT22;19894;48.452;11.494;2023-02-22T01:44:29;18.60;37.30
33564;DHT22;19894;48.452;11.494;2023-02-22T01:46:56;18.60;37.30
33564;DHT22;19894;48.452;11.494;2023-02-22T01:49:24;18.60;37.30
33564;DHT22;19894;48.452;11.494;2023-02-22T01:51:53;18.60;37.30
33564;DHT22;19894;48.452;11.494;2023-02-22T01:54:25;18.60;37.30
33564;DHT22;19894;48.452;11.494;2023-02-22T01:57:19;18.60;37.30
33564;DHT22;19894;48.452;11.494;2023-02-22T01:59:49;18.60;37.30
33564;DHT22;19894;48.452;11.494;2023-02-22T02:02:16;18.60;37.40
33564;DHT22;19894;48.452;11.494;2023-02-22T02:04:43;18.60;37.40
33564;DHT22;19894;48.452;11.494;2023-02-22T02:07:12;18.60;37.40
33564;DHT22;19894;48.452;11.494;2023-02-22T02:09:43;18.60;37.40
33564;DHT22;19894;48.452;11.494;2023-02-22T02:12:14;18.60;37.40
33564;DHT22;19894;48.452;11.494;2023-02-22T02:14:41;18.60;37.30
33564;DHT22;19894;48.452;11.494;2023-02-22T02:17:15;18.60;37.30
33564;DHT22;19894;48.452;11.494;2023-02-22T02:33:48;18.60;37.30
33564;DHT22;19894;48.452;11.494;2023-02-22T02:36:34;18.60;37.30
33564;DHT22;19894;48.452;11.494;2023-02-22T02:41:43;18.60;37.20
33564;DHT22;19894;48.452;11.494;2023-02-22T02:47:04;18.60;37.20
33564;DHT22;19894;48.452;11.494;2023-02-22T02:49:49;18.60;37.20
33564;DHT22;19894;48.452;11.494;2023-02-22T02:52:17;18.60;37.20
33564;DHT22;19894;48.452;11.494;2023-02-22T02:54:45;18.50;37.10
33564;DHT22;19894;48.452;11.494;2023-02-22T02:57:11;18.60;37.20
33564;DHT22;19894;48.452;11.494;2023-02-22T02:59:37;18.60;37.20
33564;DHT22;19894;48.452;11.494;2023-02-22T03:08:02;18.60;37.20
33564;DHT22;19894;48.452;11.494;2023-02-22T03:10:45;18.60;37.20
33564;DHT22;19894;48.452;11.494;2023-02-22T03:16:09;18.60;37.20
33564;DHT22;19894;48.452;11.494;2023-02-22T03:18:55;18.60;37.20
33564;DHT22;19894;48.452;11.494;2023-02-22T03:21:33;18.60;37.30
33564;DHT22;19894;48.452;11.494;2023-02-22T03:24:08;18.60;37.30
33564;DHT22;19894;48.452;11.494;2023-02-22T03:30:01;18.60;37.30
33564;DHT22;19894;48.452;11.494;2023-02-22T03:32:29;18.60;37.10
33564;DHT22;19894;48.452;11.494;2023-02-22T03:35:05;18.60;37.10
33564;DHT22;19894;48.452;11.494;2023-02-22T03:37:34;18.60;37.10
33564;DHT22;19894;48.452;11.494;2023-02-22T03:40:04;18.60;37.10
33564;DHT22;19894;48.452;11.494;2023-02-22T03:42:44;18.60;37.10
33564;DHT22;19894;48.452;11.494;2023-02-22T03:45:15;18.60;37.10
33564;DHT22;19894;48.452;11.494;2023-02-22T03:47:46;18.60;37.10
33564;DHT22;19894;48.452;11.494;2023-02-22T03:50:19;18.60;37.10
33564;DHT22;19894;48.452;11.494;2023-02-22T03:52:46;18.60;37.10
33564;DHT22;19894;48.452;11.494;2023-02-22T03:55:13;18.60;37.10
33564;DHT22;19894;48.452;11.494;2023-02-22T03:57:49;18.60;37.10
33564;DHT22;19894;48.452;11.494;2023-02-22T04:00:21;18.60;37.00
33564;DHT22;19894;48.452;11.494;2023-02-22T04:02:47;18.60;37.10
33564;DHT22;19894;48.452;11.494;2023-02-22T04:05:13;18.60;37.10
33564;DHT22;19894;48.452;11.494;2023-02-22T04:07:40;18.60;37.10
33564;DHT22;19894;48.452;11.494;2023-02-22T04:10:06;18.60;37.10
33564;DHT22;19894;48.452;11.494;2023-02-22T04:12:35;18.60;37.10
33564;DHT22;19894;48.452;11.494;2023-02-22T04:15:01;18.60;37.10
33564;DHT22;19894;48.452;11.494;2023-02-22T04:17:26;18.60;37.10
33564;DHT22;19894;48.452;11.494;2023-02-22T04:19:52;18.60;37.10
33564;DHT22;19894;48.452;11.494;2023-02-22T04:22:17;18.60;37.10
33564;DHT22;19894;48.452;11.494;2023-02-22T04:24:43;18.60;37.10
33564;DHT22;19894;48.452;11.494;2023-02-22T04:27:10;18.60;37.10
33564;DHT22;19894;48.452;11.494;2023-02-22T04:29:35;18.60;37.10
33564;DHT22;19894;48.452;11.494;2023-02-22T04:32:02;18.60;37.10
33564;DHT22;19894;48.452;11.494;2023-02-22T04:34:28;18.60;37.00
33564;DHT22;19894;48.452;11.494;2023-02-22T04:36:54;18.60;37.00
33564;DHT22;19894;48.452;11.494;2023-02-22T04:39:19;18.60;37.00
33564;DHT22;19894;48.452;11.494;2023-02-22T04:41:45;18.60;37.50
33564;DHT22;19894;48.452;11.494;2023-02-22T04:44:12;18.60;36.90
33564;DHT22;19894;48.452;11.494;2023-02-22T04:46:37;18.60;36.90
33564;DHT22;19894;48.452;11.494;2023-02-22T04:49:03;18.60;37.50
33564;DHT22;19894;48.452;11.494;2023-02-22T04:51:29;18.60;36.90
33564;DHT22;19894;48.452;11.494;2023-02-22T04:53:54;18.60;36.90
33564;DHT22;19894;48.452;11.494;2023-02-22T04:56:20;18.60;36.90
33564;DHT22;19894;48.452;11.494;2023-02-22T04:58:46;18.60;36.90
33564;DHT22;19894;48.452;11.494;2023-02-22T05:01:13;18.60;36.90
33564;DHT22;19894;48.452;11.494;2023-02-22T05:03:39;18.60;36.90
33564;DHT22;19894;48.452;11.494;2023-02-22T05:06:05;18.60;36.90
33564;DHT22;19894;48.452;11.494;2023-02-22T05:08:30;18.60;36.90
33564;DHT22;19894;48.452;11.494;2023-02-22T05:10:56;18.60;36.90
33564;DHT22;19894;48.452;11.494;2023-02-22T05:13:21;18.60;36.90
33564;DHT22;19894;48.452;11.494;2023-02-22T05:15:47;18.60;36.90
33564;DHT22;19894;48.452;11.494;2023-02-22T05:18:13;18.60;36.90
33564;DHT22;19894;48.452;11.494;2023-02-22T05:20:39;18.60;36.90
33564;DHT22;19894;48.452;11.494;2023-02-22T05:23:05;18.60;36.90
33564;DHT22;19894;48.452;11.494;2023-02-22T05:25:31;18.60;36.90
33564;DHT22;19894;48.452;11.494;2023-02-22T05:28:01;18.60;36.90
33564;DHT22;19894;48.452;11.494;2023-02-22T05:30:28;18.60;36.90
33564;DHT22;19894;48.452;11.494;2023-02-22T05:32:55;18.60;36.90
33564;DHT22;19894;48.452;11.494;2023-02-22T05:35:21;18.60;36.90
33564;DHT22;19894;48.452;11.494;2023-02-22T05:37:47;18.60;36.80
33564;DHT22;19894;48.452;11.494;2023-02-22T05:40:17;18.60;36.90
33564;DHT22;19894;48.452;11.494;2023-02-22T05:42:42;18.60;36.80
33564;DHT22;19894;48.452;11.494;2023-02-22T05:45:11;18.60;36.80
33564;DHT22;19894;48.452;11.494;2023-02-22T05:47:37;18.60;36.80
33564;DHT22;19894;48.452;11.494;2023-02-22T05:50:03;18.60;36.80
33564;DHT22;19894;48.452;11.494;2023-02-22T05:52:29;18.60;36.80
33564;DHT22;19894;48.452;11.494;2023-02-22T05:54:54;18.50;36.70
33564;DHT22;19894;48.452;11.494;2023-02-22T05:57:20;18.60;36.70
33564;DHT22;19894;48.452;11.494;2023-02-22T05:59:45;18.60;36.70
33564;DHT22;19894;48.452;11.494;2023-02-22T06:02:11;18.60;36.70
33564;DHT22;19894;48.452;11.494;2023-02-22T06:04:36;18.60;36.70
33564;DHT22;19894;48.452;11.494;2023-02-22T06:07:02;18.60;36.70
33564;DHT22;19894;48.452;11.494;2023-02-22T06:09:27;18.60;36.70
33564;DHT22;19894;48.452;11.494;2023-02-22T06:11:53;18.60;36.70
33564;DHT22;19894;48.452;11.494;2023-02-22T06:14:18;18.60;36.80
33564;DHT22;19894;48.452;11.494;2023-02-22T06:16:51;18.60;36.80
33564;DHT22;19894;48.452;11.494;2023-02-22T06:19:17;18.60;36.70
33564;DHT22;19894;48.452;11.494;2023-02-22T06:21:48;18.60;36.70
33564;DHT22;19894;48.452;11.494;2023-02-22T06:24:14;18.60;36.70
33564;DHT22;19894;48.452;11.494;2023-02-22T06:26:40;18.60;36.70
33564;DHT22;19894;48.452;11.494;2023-02-22T06:29:05;18.60;36.70
33564;DHT22;19894;48.452;11.494;2023-02-22T06:31:31;18.60;36.70
33564;DHT22;19894;48.452;11.494;2023-02-22T06:33:56;18.60;36.70
33564;DHT22;19894;48.452;11.494;2023-02-22T06:36:22;18.60;36.70
33564;DHT22;19894;48.452;11.494;2023-02-22T06:38:47;18.60;36.70
33564;DHT22;19894;48.452;11.494;2023-02-22T06:41:13;18.60;36.70
33564;DHT22;19894;48.452;11.494;2023-02-22T06:43:39;18.60;36.70
33564;DHT22;19894;48.452;11.494;2023-02-22T06:46:09;18.60;36.70
33564;DHT22;19894;48.452;11.494;2023-02-22T06:48:36;18.60;36.60
33564;DHT22;19894;48.452;11.494;2023-02-22T06:51:03;18.60;36.60
33564;DHT22;19894;48.452;11.494;2023-02-22T06:53:28;18.60;36.60
33564;DHT22;19894;48.452;11.494;2023-02-22T06:55:54;18.60;36.60
33564;DHT22;19894;48.452;11.494;2023-02-22T06:58:19;18.60;36.60
33564;DHT22;19894;48.452;11.494;2023-02-22T07:00:45;18.60;36.60
33564;DHT22;19894;48.452;11.494;2023-02-22T07:03:11;18.60;36.50
33564;DHT22;19894;48.452;11.494;2023-02-22T07:05:38;18.60;36.50
33564;DHT22;19894;48.452;11.494;2023-02-22T07:08:05;18.60;36.60
33564;DHT22;19894;48.452;11.494;2023-02-22T07:10:32;18.60;36.60
33564;DHT22;19894;48.452;11.494;2023-02-22T07:12:58;18.60;36.50
33564;DHT22;19894;48.452;11.494;2023-02-22T07:15:26;18.60;36.60
33564;DHT22;19894;48.452;11.494;2023-02-22T07:17:53;18.60;36.60
33564;DHT22;19894;48.452;11.494;2023-02-22T07:20:19;18.60;36.60
33564;DHT22;19894;48.452;11.494;2023-02-22T07:22:45;18.60;36.60
33564;DHT22;19894;48.452;11.494;2023-02-22T07:25:11;18.60;36.60
33564;DHT22;19894;48.452;11.494;2023-02-22T07:27:39;18.60;36.50
33564;DHT22;19894;48.452;11.494;2023-02-22T07:30:07;18.60;36.50
33564;DHT22;19894;48.452;11.494;2023-02-22T07:32:33;18.60;36.50
33564;DHT22;19894;48.452;11.494;2023-02-22T07:34:58;18.60;36.50
33564;DHT22;19894;48.452;11.494;2023-02-22T07:37:26;18.60;36.50
33564;DHT22;19894;48.452;11.494;2023-02-22T07:39:51;18.60;36.60
33564;DHT22;19894;48.452;11.494;2023-02-22T07:42:17;18.60;36.50
33564;DHT22;19894;48.452;11.494;2023-02-22T07:44:42;18.60;36.50
33564;DHT22;19894;48.452;11.494;2023-02-22T07:47:08;18.60;36.50
33564;DHT22;19894;48.452;11.494;2023-02-22T07:49:36;18.60;36.50
33564;DHT22;19894;48.452;11.494;2023-02-22T07:52:02;18.60;36.50
33564;DHT22;19894;48.452;11.494;2023-02-22T07:54:28;18.60;36.50
33564;DHT22;19894;48.452;11.494;2023-02-22T07:56:53;18.60;36.50
33564;DHT22;19894;48.452;11.494;2023-02-22T07:59:19;18.60;36.50
33564;DHT22;19894;48.452;11.494;2023-02-22T08:01:48;18.60;36.60
33564;DHT22;19894;48.452;11.494;2023-02-22T08:04:14;18.60;36.40
33564;DHT22;19894;48.452;11.494;2023-02-22T08:06:40;18.60;37.00
33564;DHT22;19894;48.452;11.494;2023-02-22T08:09:05;18.60;37.40
33564;DHT22;19894;48.452;11.494;2023-02-22T08:11:32;18.70;37.60
33564;DHT22;19894;48.452;11.494;2023-02-22T08:13:57;18.60;37.70
33564;DHT22;19894;48.452;11.494;2023-02-22T08:16:23;18.70;37.90
33564;DHT22;19894;48.452;11.494;2023-02-22T08:18:48;18.60;38.00
33564;DHT22;19894;48.452;11.494;2023-02-22T08:21:15;18.70;38.00
33564;DHT22;19894;48.452;11.494;2023-02-22T08:23:41;18.70;38.00
33564;DHT22;19894;48.452;11.494;2023-02-22T08:26:09;18.70;38.10
33564;DHT22;19894;48.452;11.494;2023-02-22T08:28:35;18.70;38.10
33564;DHT22;19894;48.452;11.494;2023-02-22T08:31:00;18.70;38.10
33564;DHT22;19894;48.452;11.494;2023-02-22T08:33:26;18.70;38.10
33564;DHT22;19894;48.452;11.494;2023-02-22T08:35:51;18.70;38.10
33564;DHT22;19894;48.452;11.494;2023-02-22T08:38:24;18.70;38.20
33564;DHT22;19894;48.452;11.494;2023-02-22T08:40:50;18.70;38.20
33564;DHT22;19894;48.452;11.494;2023-02-22T08:43:22;18.70;38.30
33564;DHT22;19894;48.452;11.494;2023-02-22T08:45:48;18.70;38.30
33564;DHT22;19894;48.452;11.494;2023-02-22T08:48:16;18.70;38.30
33564;DHT22;19894;48.452;11.494;2023-02-22T08:50:42;18.70;38.20
33564;DHT22;19894;48.452;11.494;2023-02-22T08:53:09;18.70;37.90
33564;DHT22;19894;48.452;11.494;2023-02-22T08:55:37;18.70;37.90
33564;DHT22;19894;48.452;11.494;2023-02-22T08:58:04;18.70;37.90
33564;DHT22;19894;48.452;11.494;2023-02-22T09:00:33;18.70;38.00
33564;DHT22;19894;48.452;11.494;2023-02-22T09:03:00;18.60;37.90
33564;DHT22;19894;48.452;11.494;2023-02-22T09:05:26;18.60;38.00
33564;DHT22;19894;48.452;11.494;2023-02-22T09:07:51;18.60;37.90
33564;DHT22;19894;48.452;11.494;2023-02-22T09:10:20;18.60;37.90
33564;DHT22;19894;48.452;11.494;2023-02-22T09:12:49;18.60;38.00
33564;DHT22;19894;48.452;11.494;2023-02-22T09:15:15;18.60;38.00
33564;DHT22;19894;48.452;11.494;2023-02-22T09:17:40;18.60;38.00
33564;DHT22;19894;48.452;11.494;2023-02-22T09:20:08;18.60;38.10
33564;DHT22;19894;48.452;11.494;2023-02-22T09:22:36;18.60;38.20
33564;DHT22;19894;48.452;11.494;2023-02-22T09:25:01;18.60;38.20
33564;DHT22;19894;48.452;11.494;2023-02-22T09:27:27;18.60;38.40
33564;DHT22;19894;48.452;11.494;2023-02-22T09:29:53;18.60;38.40
33564;DHT22;19894;48.452;11.494;2023-02-22T09:32:21;18.60;38.30
33564;DHT22;19894;48.452;11.494;2023-02-22T09:34:46;18.60;38.30
33564;DHT22;19894;48.452;11.494;2023-02-22T09:37:12;18.60;38.40
33564;DHT22;19894;48.452;11.494;2023-02-22T09:39:38;18.60;38.40
33564;DHT22;19894;48.452;11.494;2023-02-22T09:42:45;18.60;38.40
33564;DHT22;19894;48.452;11.494;2023-02-22T09:45:24;18.60;38.40
33564;DHT22;19894;48.452;11.494;2023-02-22T09:47:55;18.60;38.50
33564;DHT22;19894;48.452;11.494;2023-02-22T09:50:28;18.60;38.50
33564;DHT22;19894;48.452;11.494;2023-02-22T09:55:41;18.60;38.50
33564;DHT22;19894;48.452;11.494;2023-02-22T09:58:32;18.60;38.50
33564;DHT22;19894;48.452;11.494;2023-02-22T10:01:30;18.60;38.50
33564;DHT22;19894;48.452;11.494;2023-02-22T10:04:18;18.60;38.50
33564;DHT22;19894;48.452;11.494;2023-02-22T10:09:35;18.60;38.60
33564;DHT22;19894;48.452;11.494;2023-02-22T10:12:11;18.60;38.50
33564;DHT22;19894;48.452;11.494;2023-02-22T10:18:02;18.60;38.60
33564;DHT22;19894;48.452;11.494;2023-02-22T10:23:35;18.60;38.60
33564;DHT22;19894;48.452;11.494;2023-02-22T10:26:16;18.60;38.70
33564;DHT22;19894;48.452;11.494;2023-02-22T10:28:57;18.60;38.70
33564;DHT22;19894;48.452;11.494;2023-02-22T10:31:29;18.60;38.80
33564;DHT22;19894;48.452;11.494;2023-02-22T10:34:25;18.60;38.80
33564;DHT22;19894;48.452;11.494;2023-02-22T10:36:54;18.60;38.80
33564;DHT22;19894;48.452;11.494;2023-02-22T10:39:31;18.60;38.80
33564;DHT22;19894;48.452;11.494;2023-02-22T10:42:05;18.50;38.70
33564;DHT22;19894;48.452;11.494;2023-02-22T10:44:36;18.60;38.80
33564;DHT22;19894;48.452;11.494;2023-02-22T10:47:09;18.60;38.90
33564;DHT22;19894;48.452;11.494;2023-02-22T10:49:43;18.60;38.80
33564;DHT22;19894;48.452;11.494;2023-02-22T10:52:24;18.50;38.80
33564;DHT22;19894;48.452;11.494;2023-02-22T10:54:50;18.50;38.80
33564;DHT22;19894;48.452;11.494;2023-02-22T10:57:22;18.50;38.80
33564;DHT22;19894;48.452;11.494;2023-02-22T10:59:48;18.60;38.90
33564;DHT22;19894;48.452;11.494;2023-02-22T11:04:50;18.50;38.80
33564;DHT22;19894;48.452;11.494;2023-02-22T11:09:53;18.50;38.80
33564;DHT22;19894;48.452;11.494;2023-02-22T11:14:56;18.50;38.80
33564;DHT22;19894;48.452;11.494;2023-02-22T11:17:33;18.60;38.90
33564;DHT22;19894;48.452;11.494;2023-02-22T11:19:59;18.50;39.00
33564;DHT22;19894;48.452;11.494;2023-02-22T11:22:39;18.50;38.90
33564;DHT22;19894;48.452;11.494;2023-02-22T11:25:06;18.50;39.00
33564;DHT22;19894;48.452;11.494;2023-02-22T11:27:43;18.50;39.00
33564;DHT22;19894;48.452;11.494;2023-02-22T11:30:18;18.60;39.10
33564;DHT22;19894;48.452;11.494;2023-02-22T11:35:56;18.60;39.10
33564;DHT22;19894;48.452;11.494;2023-02-22T11:38:30;18.50;39.10
33564;DHT22;19894;48.452;11.494;2023-02-22T11:41:15;18.60;39.20
33564;DHT22;19894;48.452;11.494;2023-02-22T11:43:43;18.60;39.20
33564;DHT22;19894;48.452;11.494;2023-02-22T11:46:16;18.60;39.10
33564;DHT22;19894;48.452;11.494;2023-02-22T11:49:07;18.60;39.10
33564;DHT22;19894;48.452;11.494;2023-02-22T11:51:47;18.50;39.10
33564;DHT22;19894;48.452;11.494;2023-02-22T12:00:59;18.50;39.10
33564;DHT22;19894;48.452;11.494;2023-02-22T12:05:48;18.50;39.10
33564;DHT22;19894;48.452;11.494;2023-02-22T12:11:23;18.50;39.10
33564;DHT22;19894;48.452;11.494;2023-02-22T12:19:26;18.60;39.20
33564;DHT22;19894;48.452;11.494;2023-02-22T12:21:59;18.50;39.20
33564;DHT22;19894;48.452;11.494;2023-02-22T12:24:41;18.50;39.20
33564;DHT22;19894;48.452;11.494;2023-02-22T12:27:18;18.50;39.20
33564;DHT22;19894;48.452;11.494;2023-02-22T12:29:48;18.60;39.30
33564;DHT22;19894;48.452;11.494;2023-02-22T12:32:45;18.50;39.30
33564;DHT22;19894;48.452;11.494;2023-02-22T12:35:38;18.60;39.30
33564;DHT22;19894;48.452;11.494;2023-02-22T12:41:00;18.50;39.30
33564;DHT22;19894;48.452;11.494;2023-02-22T12:43:42;18.50;39.30
33564;DHT22;19894;48.452;11.494;2023-02-22T12:46:33;18.50;39.40
33564;DHT22;19894;48.452;11.494;2023-02-22T12:49:27;18.50;39.40
33564;DHT22;19894;48.452;11.494;2023-02-22T12:52:15;18.50;39.40
33564;DHT22;19894;48.452;11.494;2023-02-22T12:55:20;18.60;39.50
33564;DHT22;19894;48.452;11.494;2023-02-22T13:00:31;18.50;39.40
33564;DHT22;19894;48.452;11.494;2023-02-22T13:03:37;18.60;39.50
33564;DHT22;19894;48.452;11.494;2023-02-22T13:06:19;18.50;39.40
33564;DHT22;19894;48.452;11.494;2023-02-22T13:09:04;18.50;39.50
33564;DHT22;19894;48.452;11.494;2023-02-22T13:11:35;18.50;39.40
33564;DHT22;19894;48.452;11.494;2023-02-22T13:14:29;18.50;39.40
33564;DHT22;19894;48.452;11.494;2023-02-22T13:20:28;18.60;39.40
33564;DHT22;19894;48.452;11.494;2023-02-22T13:23:05;18.60;39.30
33564;DHT22;19894;48.452;11.494;2023-02-22T13:25:46;18.60;39.20
33564;DHT22;19894;48.452;11.494;2023-02-22T13:28:45;18.60;39.20
33564;DHT22;19894;48.452;11.494;2023-02-22T13:31:33;18.60;39.10
33564;DHT22;19894;48.452;11.494;2023-02-22T13:34:05;18.60;39.10
33564;DHT22;19894;48.452;11.494;2023-02-22T13:39:55;18.60;39.10
33564;DHT22;19894;48.452;11.494;2023-02-22T13:44:59;18.60;39.30
33564;DHT22;19894;48.452;11.494;2023-02-22T13:48:06;18.60;39.20
33564;DHT22;19894;48.452;11.494;2023-02-22T13:53:23;18.60;39.30
33564;DHT22;19894;48.452;11.494;2023-02-22T13:55:55;18.60;39.20
33564;DHT22;19894;48.452;11.494;2023-02-22T13:58:23;18.60;39.20
33564;DHT22;19894;48.452;11.494;2023-02-22T14:00:55;18.60;39.20
33564;DHT22;19894;48.452;11.494;2023-02-22T14:05:52;18.60;39.10
33564;DHT22;19894;48.452;11.494;2023-02-22T14:13:10;18.60;39.20
33564;DHT22;19894;48.452;11.494;2023-02-22T14:18:33;18.60;39.10
33564;DHT22;19894;48.452;11.494;2023-02-22T14:21:15;18.60;39.20
33564;DHT22;19894;48.452;11.494;2023-02-22T14:23:42;18.60;39.10
33564;DHT22;19894;48.452;11.494;2023-02-22T14:26:29;18.70;39.20
33564;DHT22;19894;48.452;11.494;2023-02-22T14:32:05;18.60;39.20
33564;DHT22;19894;48.452;11.494;2023-02-22T14:34:56;18.60;39.20
33564;DHT22;19894;48.452;11.494;2023-02-22T14:37:34;18.60;39.20
33564;DHT22;19894;48.452;11.494;2023-02-22T14:40:30;18.60;39.30
33564;DHT22;19894;48.452;11.494;2023-02-22T14:45:33;18.60;39.40
33564;DHT22;19894;48.452;11.494;2023-02-22T14:48:05;18.60;39.30
33564;DHT22;19894;48.452;11.494;2023-02-22T14:50:48;18.60;39.40
33564;DHT22;19894;48.452;11.494;2023-02-22T14:53:29;18.60;39.30
33564;DHT22;19894;48.452;11.494;2023-02-22T14:56:20;18.70;39.40
33564;DHT22;19894;48.452;11.494;2023-02-22T15:01:43;18.60;39.30
33564;DHT22;19894;48.452;11.494;2023-02-22T15:04:23;18.60;39.30
33564;DHT22;19894;48.452;11.494;2023-02-22T15:06:53;18.60;39.30
33564;DHT22;19894;48.452;11.494;2023-02-22T15:11:53;18.60;39.30
33564;DHT22;19894;48.452;11.494;2023-02-22T15:14:22;18.60;39.20
33564;DHT22;19894;48.452;11.494;2023-02-22T15:16:51;18.60;39.30
33564;DHT22;19894;48.452;11.494;2023-02-22T15:19:25;18.70;39.30
33564;DHT22;19894;48.452;11.494;2023-02-22T15:21:53;18.60;39.30
33564;DHT22;19894;48.452;11.494;2023-02-22T15:24:36;18.60;39.30
33564;DHT22;19894;48.452;11.494;2023-02-22T15:27:11;18.60;39.30
33564;DHT22;19894;48.452;11.494;2023-02-22T15:29:39;18.70;39.30
33564;DHT22;19894;48.452;11.494;2023-02-22T15:32:40;18.60;39.30
33564;DHT22;19894;48.452;11.494;2023-02-22T15:35:18;18.60;39.40
33564;DHT22;19894;48.452;11.494;2023-02-22T15:37:45;18.60;39.50
33564;DHT22;19894;48.452;11.494;2023-02-22T15:40:20;18.70;39.50
33564;DHT22;19894;48.452;11.494;2023-02-22T15:42:50;18.70;39.60
33564;DHT22;19894;48.452;11.494;2023-02-22T15:45:23;18.70;39.50
33564;DHT22;19894;48.452;11.494;2023-02-22T15:47:53;18.70;39.50
33564;DHT22;19894;48.452;11.494;2023-02-22T15:50:28;18.60;39.50
33564;DHT22;19894;48.452;11.494;2023-02-22T15:55:36;18.70;39.70
33564;DHT22;19894;48.452;11.494;2023-02-22T15:58:20;18.70;39.70
33564;DHT22;19894;48.452;11.494;2023-02-22T16:00:57;18.60;39.60
33564;DHT22;19894;48.452;11.494;2023-02-22T16:03:24;18.60;39.60
33564;DHT22;19894;48.452;11.494;2023-02-22T16:05:58;18.70;39.50
33564;DHT22;19894;48.452;11.494;2023-02-22T16:08:38;18.70;39.50
33564;DHT22;19894;48.452;11.494;2023-02-22T16:11:08;18.60;39.50
33564;DHT22;19894;48.452;11.494;2023-02-22T16:13:39;18.60;39.50
33564;DHT22;19894;48.452;11.494;2023-02-22T16:16:21;18.60;39.50
33564;DHT22;19894;48.452;11.494;2023-02-22T16:18:49;18.70;39.50
33564;DHT22;19894;48.452;11.494;2023-02-22T16:21:20;18.70;39.50
33564;DHT22;19894;48.452;11.494;2023-02-22T16:26:24;18.60;39.50
33564;DHT22;19894;48.452;11.494;2023-02-22T16:31:22;18.60;39.50
33564;DHT22;19894;48.452;11.494;2023-02-22T16:33:50;18.60;39.50
33564;DHT22;19894;48.452;11.494;2023-02-22T16:36:17;18.70;39.60
33564;DHT22;19894;48.452;11.494;2023-02-22T16:38:44;18.70;39.60
33564;DHT22;19894;48.452;11.494;2023-02-22T16:41:13;18.70;39.60
33564;DHT22;19894;48.452;11.494;2023-02-22T16:43:45;18.70;39.70
33564;DHT22;19894;48.452;11.494;2023-02-22T16:46:11;18.70;39.70
33564;DHT22;19894;48.452;11.494;2023-02-22T16:48:41;18.70;39.70
33564;DHT22;19894;48.452;11.494;2023-02-22T16:51:19;18.70;39.80
33564;DHT22;19894;48.452;11.494;2023-02-22T16:53:46;18.70;39.80
33564;DHT22;19894;48.452;11.494;2023-02-22T16:56:14;18.70;39.70
33564;DHT22;19894;48.452;11.494;2023-02-22T16:58:41;18.70;39.70
33564;DHT22;19894;48.452;11.494;2023-02-22T17:01:07;18.70;39.70
33564;DHT22;19894;48.452;11.494;2023-02-22T17:03:34;18.70;39.70
33564;DHT22;19894;48.452;11.494;2023-02-22T17:06:00;18.70;39.70
33564;DHT22;19894;48.452;11.494;2023-02-22T17:08:25;18.70;39.70
33564;DHT22;19894;48.452;11.494;2023-02-22T17:10:52;18.70;39.70
33564;DHT22;19894;48.452;11.494;2023-02-22T17:13:23;18.70;39.70
33564;DHT22;19894;48.452;11.494;2023-02-22T17:15:49;18.70;39.70
33564;DHT22;19894;48.452;11.494;2023-02-22T17:18:16;18.70;39.70
33564;DHT22;19894;48.452;11.494;2023-02-22T17:20:50;18.70;39.70
33564;DHT22;19894;48.452;11.494;2023-02-22T17:23:16;18.70;39.70
33564;DHT22;19894;48.452;11.494;2023-02-22T17:28:18;18.70;39.80
33564;DHT22;19894;48.452;11.494;2023-02-22T17:30:43;18.70;39.80
33564;DHT22;19894;48.452;11.494;2023-02-22T17:33:17;18.70;39.80
33564;DHT22;19894;48.452;11.494;2023-02-22T17:35:44;18.70;39.80
33564;DHT22;19894;48.452;11.494;2023-02-22T17:38:11;18.70;39.80